sensor_id;sensor_type;location;lat;lon;timestamp;P1;durP1;ratioP1;P2;durP2;ratioP2
22660;SDS011;11497;52.222;21.246;2023-09-08T00:00:53;16.48;;;9.45;;
22660;SDS011;11497;52.222;21.246;2023-09-08T00:03:33;13.15;;;8.73;;
22660;SDS011;11497;52.222;21.246;2023-09-08T00:06:01;15.35;;;9.27;;
22660;SDS011;11497;52.222;21.246;2023-09-08T00:08:28;12.23;;;8.88;;
22660;SDS011;11497;52.222;21.246;2023-09-08T00:10:56;15.82;;;8.80;;
22660;SDS011;11497;52.222;21.246;2023-09-08T00:13:24;12.93;;;8.80;;
22660;SDS011;11497;52.222;21.246;2023-09-08T00:15:52;12.70;;;9.07;;
22660;SDS011;11497;52.222;21.246;2023-09-08T00:18:20;14.30;;;9.43;;
22660;SDS011;11497;52.222;21.246;2023-09-08T00:20:48;14.05;;;9.18;;
22660;SDS011;11497;52.222;21.246;2023-09-08T00:23:15;12.02;;;9.07;;
22660;SDS011;11497;52.222;21.246;2023-09-08T00:25:43;14.63;;;9.27;;
22660;SDS011;11497;52.222;21.246;2023-09-08T00:28:11;11.07;;;9.00;;
22660;SDS011;11497;52.222;21.246;2023-09-08T00:30:39;11.65;;;9.00;;
22660;SDS011;11497;52.222;21.246;2023-09-08T00:33:06;13.25;;;9.40;;
22660;SDS011;11497;52.222;21.246;2023-09-08T00:35:36;14.23;;;8.95;;
22660;SDS011;11497;52.222;21.246;2023-09-08T00:38:03;12.65;;;9.05;;
22660;SDS011;11497;52.222;21.246;2023-09-08T00:40:31;14.63;;;9.43;;
22660;SDS011;11497;52.222;21.246;2023-09-08T00:42:59;16.98;;;9.23;;
22660;SDS011;11497;52.222;21.246;2023-09-08T00:45:27;11.50;;;8.60;;
22660;SDS011;11497;52.222;21.246;2023-09-08T00:47:57;12.65;;;8.95;;
22660;SDS011;11497;52.222;21.246;2023-09-08T00:50:26;13.30;;;8.85;;
22660;SDS011;11497;52.222;21.246;2023-09-08T00:52:53;12.13;;;8.93;;
22660;SDS011;11497;52.222;21.246;2023-09-08T00:55:21;13.82;;;9.10;;
22660;SDS011;11497;52.222;21.246;2023-09-08T00:57:49;11.45;;;7.97;;
22660;SDS011;11497;52.222;21.246;2023-09-08T01:00:17;14.73;;;9.05;;
22660;SDS011;11497;52.222;21.246;2023-09-08T01:02:44;12.27;;;8.52;;
22660;SDS011;11497;52.222;21.246;2023-09-08T01:05:12;14.20;;;8.93;;
22660;SDS011;11497;52.222;21.246;2023-09-08T01:07:41;12.27;;;8.80;;
22660;SDS011;11497;52.222;21.246;2023-09-08T01:10:09;12.82;;;9.10;;
22660;SDS011;11497;52.222;21.246;2023-09-08T01:12:37;14.07;;;9.20;;
22660;SDS011;11497;52.222;21.246;2023-09-08T01:15:05;13.27;;;8.68;;
22660;SDS011;11497;52.222;21.246;2023-09-08T01:17:33;13.95;;;8.98;;
22660;SDS011;11497;52.222;21.246;2023-09-08T01:20:04;13.57;;;8.65;;
22660;SDS011;11497;52.222;21.246;2023-09-08T01:25:09;12.32;;;8.63;;
22660;SDS011;11497;52.222;21.246;2023-09-08T01:27:41;17.38;;;8.80;;
22660;SDS011;11497;52.222;21.246;2023-09-08T01:30:12;12.98;;;8.80;;
22660;SDS011;11497;52.222;21.246;2023-09-08T01:32:41;15.48;;;8.63;;
22660;SDS011;11497;52.222;21.246;2023-09-08T01:35:10;12.93;;;9.05;;
22660;SDS011;11497;52.222;21.246;2023-09-08T01:37:42;12.50;;;8.35;;
22660;SDS011;11497;52.222;21.246;2023-09-08T01:43:14;12.45;;;8.57;;
22660;SDS011;11497;52.222;21.246;2023-09-08T01:45:42;12.98;;;9.50;;
22660;SDS011;11497;52.222;21.246;2023-09-08T01:48:10;11.38;;;8.73;;
22660;SDS011;11497;52.222;21.246;2023-09-08T01:50:37;13.82;;;9.23;;
22660;SDS011;11497;52.222;21.246;2023-09-08T01:53:05;11.90;;;8.68;;
22660;SDS011;11497;52.222;21.246;2023-09-08T01:55:33;13.10;;;8.93;;
22660;SDS011;11497;52.222;21.246;2023-09-08T01:58:01;17.17;;;8.68;;
22660;SDS011;11497;52.222;21.246;2023-09-08T02:00:29;15.18;;;8.77;;
22660;SDS011;11497;52.222;21.246;2023-09-08T02:02:57;15.88;;;8.70;;
22660;SDS011;11497;52.222;21.246;2023-09-08T02:05:25;13.43;;;8.40;;
22660;SDS011;11497;52.222;21.246;2023-09-08T02:07:53;14.18;;;8.65;;
22660;SDS011;11497;52.222;21.246;2023-09-08T02:10:22;15.63;;;8.45;;
22660;SDS011;11497;52.222;21.246;2023-09-08T02:12:50;15.45;;;8.73;;
22660;SDS011;11497;52.222;21.246;2023-09-08T02:15:18;11.52;;;8.30;;
22660;SDS011;11497;52.222;21.246;2023-09-08T02:17:45;12.25;;;8.73;;
22660;SDS011;11497;52.222;21.246;2023-09-08T02:20:13;10.10;;;8.10;;
22660;SDS011;11497;52.222;21.246;2023-09-08T02:22:41;13.88;;;8.88;;
22660;SDS011;11497;52.222;21.246;2023-09-08T02:25:09;10.73;;;8.30;;
22660;SDS011;11497;52.222;21.246;2023-09-08T02:27:38;13.73;;;9.00;;
22660;SDS011;11497;52.222;21.246;2023-09-08T02:30:06;13.20;;;9.43;;
22660;SDS011;11497;52.222;21.246;2023-09-08T02:32:34;15.98;;;9.10;;
22660;SDS011;11497;52.222;21.246;2023-09-08T02:35:02;12.98;;;8.95;;
22660;SDS011;11497;52.222;21.246;2023-09-08T02:37:30;10.52;;;8.73;;
22660;SDS011;11497;52.222;21.246;2023-09-08T02:39:58;13.15;;;8.98;;
22660;SDS011;11497;52.222;21.246;2023-09-08T02:42:26;12.15;;;8.98;;
22660;SDS011;11497;52.222;21.246;2023-09-08T02:44:55;11.30;;;9.23;;
22660;SDS011;11497;52.222;21.246;2023-09-08T02:47:23;12.75;;;8.88;;
22660;SDS011;11497;52.222;21.246;2023-09-08T02:49:51;13.50;;;9.15;;
22660;SDS011;11497;52.222;21.246;2023-09-08T02:52:19;12.93;;;9.02;;
22660;SDS011;11497;52.222;21.246;2023-09-08T02:54:47;14.18;;;8.70;;
22660;SDS011;11497;52.222;21.246;2023-09-08T02:57:15;14.55;;;9.38;;
22660;SDS011;11497;52.222;21.246;2023-09-08T02:59:48;12.00;;;8.82;;
22660;SDS011;11497;52.222;21.246;2023-09-08T03:02:15;14.05;;;9.13;;
22660;SDS011;11497;52.222;21.246;2023-09-08T03:04:44;12.35;;;9.40;;
22660;SDS011;11497;52.222;21.246;2023-09-08T03:07:12;11.90;;;8.75;;
22660;SDS011;11497;52.222;21.246;2023-09-08T03:09:40;12.07;;;9.35;;
22660;SDS011;11497;52.222;21.246;2023-09-08T03:12:07;12.63;;;9.63;;
22660;SDS011;11497;52.222;21.246;2023-09-08T03:14:35;15.52;;;9.45;;
22660;SDS011;11497;52.222;21.246;2023-09-08T03:17:03;13.93;;;8.90;;
22660;SDS011;11497;52.222;21.246;2023-09-08T03:19:31;13.93;;;9.02;;
22660;SDS011;11497;52.222;21.246;2023-09-08T03:21:59;11.80;;;9.27;;
22660;SDS011;11497;52.222;21.246;2023-09-08T03:24:27;15.63;;;10.10;;
22660;SDS011;11497;52.222;21.246;2023-09-08T03:26:54;14.88;;;9.48;;
22660;SDS011;11497;52.222;21.246;2023-09-08T03:29:23;16.83;;;9.43;;
22660;SDS011;11497;52.222;21.246;2023-09-08T03:31:51;12.88;;;9.25;;
22660;SDS011;11497;52.222;21.246;2023-09-08T03:34:19;16.40;;;10.20;;
22660;SDS011;11497;52.222;21.246;2023-09-08T03:36:48;12.43;;;9.18;;
22660;SDS011;11497;52.222;21.246;2023-09-08T03:39:17;14.80;;;9.50;;
22660;SDS011;11497;52.222;21.246;2023-09-08T03:41:46;13.02;;;9.27;;
22660;SDS011;11497;52.222;21.246;2023-09-08T03:44:14;17.25;;;9.70;;
22660;SDS011;11497;52.222;21.246;2023-09-08T03:46:42;14.38;;;9.38;;
22660;SDS011;11497;52.222;21.246;2023-09-08T03:49:10;14.13;;;9.40;;
22660;SDS011;11497;52.222;21.246;2023-09-08T03:51:37;13.15;;;9.57;;
22660;SDS011;11497;52.222;21.246;2023-09-08T03:54:05;15.30;;;9.95;;
22660;SDS011;11497;52.222;21.246;2023-09-08T03:56:33;12.52;;;9.30;;
22660;SDS011;11497;52.222;21.246;2023-09-08T03:59:01;15.15;;;10.13;;
22660;SDS011;11497;52.222;21.246;2023-09-08T04:01:29;14.80;;;10.73;;
22660;SDS011;11497;52.222;21.246;2023-09-08T04:03:57;13.27;;;9.88;;
22660;SDS011;11497;52.222;21.246;2023-09-08T04:06:25;16.10;;;9.55;;
22660;SDS011;11497;52.222;21.246;2023-09-08T04:08:55;16.48;;;9.85;;
22660;SDS011;11497;52.222;21.246;2023-09-08T04:11:23;13.18;;;9.10;;
22660;SDS011;11497;52.222;21.246;2023-09-08T04:13:52;16.42;;;11.07;;
22660;SDS011;11497;52.222;21.246;2023-09-08T04:16:20;13.80;;;10.18;;
22660;SDS011;11497;52.222;21.246;2023-09-08T04:18:48;16.38;;;10.57;;
22660;SDS011;11497;52.222;21.246;2023-09-08T04:21:17;14.93;;;10.68;;
22660;SDS011;11497;52.222;21.246;2023-09-08T04:23:45;16.02;;;9.95;;
22660;SDS011;11497;52.222;21.246;2023-09-08T04:26:14;18.65;;;10.38;;
22660;SDS011;11497;52.222;21.246;2023-09-08T04:28:41;19.52;;;10.25;;
22660;SDS011;11497;52.222;21.246;2023-09-08T04:31:09;18.67;;;10.48;;
22660;SDS011;11497;52.222;21.246;2023-09-08T04:33:38;14.27;;;9.68;;
22660;SDS011;11497;52.222;21.246;2023-09-08T04:36:06;13.48;;;9.68;;
22660;SDS011;11497;52.222;21.246;2023-09-08T04:38:34;20.17;;;10.38;;
22660;SDS011;11497;52.222;21.246;2023-09-08T04:41:01;14.02;;;10.23;;
22660;SDS011;11497;52.222;21.246;2023-09-08T04:43:29;15.73;;;10.57;;
22660;SDS011;11497;52.222;21.246;2023-09-08T04:45:57;15.35;;;10.45;;
22660;SDS011;11497;52.222;21.246;2023-09-08T04:48:25;13.82;;;9.95;;
22660;SDS011;11497;52.222;21.246;2023-09-08T04:50:57;16.80;;;9.93;;
22660;SDS011;11497;52.222;21.246;2023-09-08T04:53:25;17.70;;;11.70;;
22660;SDS011;11497;52.222;21.246;2023-09-08T04:55:53;13.73;;;10.10;;
22660;SDS011;11497;52.222;21.246;2023-09-08T04:58:21;17.58;;;10.88;;
22660;SDS011;11497;52.222;21.246;2023-09-08T05:00:48;17.27;;;10.40;;
22660;SDS011;11497;52.222;21.246;2023-09-08T05:03:17;17.35;;;11.20;;
22660;SDS011;11497;52.222;21.246;2023-09-08T05:05:45;16.50;;;10.95;;
22660;SDS011;11497;52.222;21.246;2023-09-08T05:08:15;16.30;;;10.38;;
22660;SDS011;11497;52.222;21.246;2023-09-08T05:10:44;14.90;;;10.10;;
22660;SDS011;11497;52.222;21.246;2023-09-08T05:13:12;19.58;;;10.23;;
22660;SDS011;11497;52.222;21.246;2023-09-08T05:18:39;16.98;;;9.85;;
22660;SDS011;11497;52.222;21.246;2023-09-08T05:21:08;11.88;;;9.27;;
22660;SDS011;11497;52.222;21.246;2023-09-08T05:23:37;13.98;;;9.50;;
22660;SDS011;11497;52.222;21.246;2023-09-08T05:26:06;16.83;;;9.95;;
22660;SDS011;11497;52.222;21.246;2023-09-08T05:28:34;16.45;;;9.90;;
22660;SDS011;11497;52.222;21.246;2023-09-08T05:31:06;16.75;;;9.93;;
22660;SDS011;11497;52.222;21.246;2023-09-08T05:33:34;13.57;;;9.75;;
22660;SDS011;11497;52.222;21.246;2023-09-08T05:36:02;19.42;;;9.80;;
22660;SDS011;11497;52.222;21.246;2023-09-08T05:38:32;16.33;;;9.45;;
22660;SDS011;11497;52.222;21.246;2023-09-08T05:41:00;19.85;;;10.48;;
22660;SDS011;11497;52.222;21.246;2023-09-08T05:43:30;14.82;;;9.95;;
22660;SDS011;11497;52.222;21.246;2023-09-08T05:45:58;15.10;;;9.65;;
22660;SDS011;11497;52.222;21.246;2023-09-08T05:48:27;15.07;;;10.10;;
22660;SDS011;11497;52.222;21.246;2023-09-08T05:50:55;15.25;;;9.68;;
22660;SDS011;11497;52.222;21.246;2023-09-08T05:53:23;18.55;;;10.80;;
22660;SDS011;11497;52.222;21.246;2023-09-08T05:55:51;16.85;;;9.68;;
22660;SDS011;11497;52.222;21.246;2023-09-08T05:58:19;15.63;;;8.98;;
22660;SDS011;11497;52.222;21.246;2023-09-08T06:00:47;11.70;;;8.98;;
22660;SDS011;11497;52.222;21.246;2023-09-08T06:03:16;14.75;;;9.27;;
22660;SDS011;11497;52.222;21.246;2023-09-08T06:05:44;16.40;;;9.38;;
22660;SDS011;11497;52.222;21.246;2023-09-08T06:08:12;17.40;;;9.05;;
22660;SDS011;11497;52.222;21.246;2023-09-08T06:10:41;13.50;;;8.93;;
22660;SDS011;11497;52.222;21.246;2023-09-08T06:13:09;11.07;;;8.82;;
22660;SDS011;11497;52.222;21.246;2023-09-08T06:15:41;17.30;;;9.10;;
22660;SDS011;11497;52.222;21.246;2023-09-08T06:18:11;11.73;;;8.60;;
22660;SDS011;11497;52.222;21.246;2023-09-08T06:20:46;11.38;;;7.95;;
22660;SDS011;11497;52.222;21.246;2023-09-08T06:23:14;14.48;;;8.45;;
22660;SDS011;11497;52.222;21.246;2023-09-08T06:25:42;14.95;;;9.05;;
22660;SDS011;11497;52.222;21.246;2023-09-08T06:28:10;17.15;;;9.07;;
22660;SDS011;11497;52.222;21.246;2023-09-08T06:30:38;15.52;;;8.80;;
22660;SDS011;11497;52.222;21.246;2023-09-08T06:33:09;14.43;;;8.38;;
22660;SDS011;11497;52.222;21.246;2023-09-08T06:35:37;15.00;;;8.27;;
22660;SDS011;11497;52.222;21.246;2023-09-08T06:38:06;11.43;;;8.05;;
22660;SDS011;11497;52.222;21.246;2023-09-08T06:40:33;14.05;;;8.82;;
22660;SDS011;11497;52.222;21.246;2023-09-08T06:43:02;11.43;;;7.75;;
22660;SDS011;11497;52.222;21.246;2023-09-08T06:45:56;14.32;;;8.07;;
22660;SDS011;11497;52.222;21.246;2023-09-08T06:48:24;12.95;;;7.90;;
22660;SDS011;11497;52.222;21.246;2023-09-08T06:50:53;10.70;;;8.02;;
22660;SDS011;11497;52.222;21.246;2023-09-08T06:53:24;11.95;;;7.85;;
22660;SDS011;11497;52.222;21.246;2023-09-08T06:55:53;15.80;;;7.88;;
22660;SDS011;11497;52.222;21.246;2023-09-08T06:58:21;14.32;;;7.32;;
22660;SDS011;11497;52.222;21.246;2023-09-08T07:00:49;14.48;;;7.68;;
22660;SDS011;11497;52.222;21.246;2023-09-08T07:03:22;14.85;;;8.07;;
22660;SDS011;11497;52.222;21.246;2023-09-08T07:05:51;14.25;;;7.47;;
22660;SDS011;11497;52.222;21.246;2023-09-08T07:08:21;14.35;;;7.65;;
22660;SDS011;11497;52.222;21.246;2023-09-08T07:10:51;12.50;;;7.88;;
22660;SDS011;11497;52.222;21.246;2023-09-08T07:13:20;11.50;;;7.55;;
22660;SDS011;11497;52.222;21.246;2023-09-08T07:15:48;12.88;;;7.70;;
22660;SDS011;11497;52.222;21.246;2023-09-08T07:18:16;13.95;;;8.05;;
22660;SDS011;11497;52.222;21.246;2023-09-08T07:20:47;11.63;;;8.13;;
22660;SDS011;11497;52.222;21.246;2023-09-08T07:23:17;12.98;;;8.15;;
22660;SDS011;11497;52.222;21.246;2023-09-08T07:25:46;14.50;;;8.02;;
22660;SDS011;11497;52.222;21.246;2023-09-08T07:28:15;10.75;;;7.63;;
22660;SDS011;11497;52.222;21.246;2023-09-08T07:30:43;13.27;;;8.18;;
22660;SDS011;11497;52.222;21.246;2023-09-08T07:33:12;12.20;;;7.40;;
22660;SDS011;11497;52.222;21.246;2023-09-08T07:35:42;10.63;;;7.65;;
22660;SDS011;11497;52.222;21.246;2023-09-08T07:38:10;13.05;;;8.07;;
22660;SDS011;11497;52.222;21.246;2023-09-08T07:40:38;13.95;;;7.97;;
22660;SDS011;11497;52.222;21.246;2023-09-08T07:43:06;11.13;;;7.70;;
22660;SDS011;11497;52.222;21.246;2023-09-08T07:45:35;10.63;;;7.15;;
22660;SDS011;11497;52.222;21.246;2023-09-08T07:48:03;13.57;;;7.43;;
22660;SDS011;11497;52.222;21.246;2023-09-08T07:50:31;10.73;;;7.35;;
22660;SDS011;11497;52.222;21.246;2023-09-08T07:52:59;12.63;;;6.63;;
22660;SDS011;11497;52.222;21.246;2023-09-08T07:55:26;14.52;;;7.03;;
22660;SDS011;11497;52.222;21.246;2023-09-08T07:57:55;9.95;;;6.15;;
22660;SDS011;11497;52.222;21.246;2023-09-08T08:00:24;13.98;;;6.63;;
22660;SDS011;11497;52.222;21.246;2023-09-08T08:02:54;8.77;;;6.38;;
22660;SDS011;11497;52.222;21.246;2023-09-08T08:05:23;8.38;;;6.20;;
22660;SDS011;11497;52.222;21.246;2023-09-08T08:07:51;9.32;;;6.38;;
22660;SDS011;11497;52.222;21.246;2023-09-08T08:10:19;8.45;;;6.03;;
22660;SDS011;11497;52.222;21.246;2023-09-08T08:12:47;10.27;;;5.68;;
22660;SDS011;11497;52.222;21.246;2023-09-08T08:15:15;9.25;;;6.47;;
22660;SDS011;11497;52.222;21.246;2023-09-08T08:17:43;8.82;;;5.85;;
22660;SDS011;11497;52.222;21.246;2023-09-08T08:20:11;11.18;;;6.50;;
22660;SDS011;11497;52.222;21.246;2023-09-08T08:22:45;11.00;;;6.50;;
22660;SDS011;11497;52.222;21.246;2023-09-08T08:25:13;8.98;;;5.90;;
22660;SDS011;11497;52.222;21.246;2023-09-08T08:27:42;8.48;;;5.90;;
22660;SDS011;11497;52.222;21.246;2023-09-08T08:30:11;9.73;;;5.88;;
22660;SDS011;11497;52.222;21.246;2023-09-08T08:32:39;8.63;;;5.97;;
22660;SDS011;11497;52.222;21.246;2023-09-08T08:35:07;9.38;;;6.25;;
22660;SDS011;11497;52.222;21.246;2023-09-08T08:37:35;10.77;;;6.60;;
22660;SDS011;11497;52.222;21.246;2023-09-08T08:40:02;9.52;;;5.78;;
22660;SDS011;11497;52.222;21.246;2023-09-08T08:42:34;10.43;;;6.05;;
22660;SDS011;11497;52.222;21.246;2023-09-08T08:45:01;10.43;;;5.80;;
22660;SDS011;11497;52.222;21.246;2023-09-08T08:47:30;6.78;;;5.60;;
22660;SDS011;11497;52.222;21.246;2023-09-08T08:49:59;13.43;;;5.72;;
22660;SDS011;11497;52.222;21.246;2023-09-08T08:52:27;9.40;;;6.32;;
22660;SDS011;11497;52.222;21.246;2023-09-08T08:54:55;11.77;;;6.07;;
22660;SDS011;11497;52.222;21.246;2023-09-08T08:57:24;11.55;;;6.15;;
22660;SDS011;11497;52.222;21.246;2023-09-08T08:59:54;11.43;;;6.10;;
22660;SDS011;11497;52.222;21.246;2023-09-08T09:02:22;10.00;;;5.70;;
22660;SDS011;11497;52.222;21.246;2023-09-08T09:04:52;10.45;;;6.60;;
22660;SDS011;11497;52.222;21.246;2023-09-08T09:07:21;9.55;;;5.95;;
22660;SDS011;11497;52.222;21.246;2023-09-08T09:09:48;9.38;;;6.30;;
22660;SDS011;11497;52.222;21.246;2023-09-08T09:12:16;6.57;;;5.75;;
22660;SDS011;11497;52.222;21.246;2023-09-08T09:14:45;9.57;;;5.85;;
22660;SDS011;11497;52.222;21.246;2023-09-08T09:17:14;11.65;;;5.88;;
22660;SDS011;11497;52.222;21.246;2023-09-08T09:19:42;10.27;;;5.55;;
22660;SDS011;11497;52.222;21.246;2023-09-08T09:22:10;8.48;;;5.93;;
22660;SDS011;11497;52.222;21.246;2023-09-08T09:24:38;7.95;;;6.10;;
22660;SDS011;11497;52.222;21.246;2023-09-08T09:27:13;7.65;;;5.80;;
22660;SDS011;11497;52.222;21.246;2023-09-08T09:29:50;9.93;;;6.38;;
22660;SDS011;11497;52.222;21.246;2023-09-08T09:32:22;8.60;;;6.63;;
22660;SDS011;11497;52.222;21.246;2023-09-08T09:34:51;9.45;;;5.65;;
22660;SDS011;11497;52.222;21.246;2023-09-08T09:37:23;8.68;;;5.57;;
22660;SDS011;11497;52.222;21.246;2023-09-08T09:39:51;9.18;;;5.78;;
22660;SDS011;11497;52.222;21.246;2023-09-08T09:42:20;8.80;;;5.47;;
22660;SDS011;11497;52.222;21.246;2023-09-08T09:44:48;12.02;;;5.80;;
22660;SDS011;11497;52.222;21.246;2023-09-08T09:47:18;7.50;;;5.22;;
22660;SDS011;11497;52.222;21.246;2023-09-08T09:49:47;7.95;;;5.18;;
22660;SDS011;11497;52.222;21.246;2023-09-08T09:52:23;7.32;;;4.75;;
22660;SDS011;11497;52.222;21.246;2023-09-08T09:54:53;8.38;;;5.10;;
22660;SDS011;11497;52.222;21.246;2023-09-08T09:57:23;8.95;;;4.82;;
22660;SDS011;11497;52.222;21.246;2023-09-08T09:59:51;6.75;;;5.20;;
22660;SDS011;11497;52.222;21.246;2023-09-08T10:02:20;10.38;;;5.80;;
22660;SDS011;11497;52.222;21.246;2023-09-08T10:04:49;6.57;;;5.20;;
22660;SDS011;11497;52.222;21.246;2023-09-08T10:07:18;9.25;;;5.60;;
22660;SDS011;11497;52.222;21.246;2023-09-08T10:09:46;8.15;;;5.05;;
22660;SDS011;11497;52.222;21.246;2023-09-08T10:12:14;7.65;;;5.38;;
22660;SDS011;11497;52.222;21.246;2023-09-08T10:14:43;6.28;;;4.93;;
22660;SDS011;11497;52.222;21.246;2023-09-08T10:17:18;11.25;;;5.45;;
22660;SDS011;11497;52.222;21.246;2023-09-08T10:19:47;5.50;;;4.60;;
22660;SDS011;11497;52.222;21.246;2023-09-08T10:22:22;8.27;;;4.82;;
22660;SDS011;11497;52.222;21.246;2023-09-08T10:24:54;6.88;;;5.13;;
22660;SDS011;11497;52.222;21.246;2023-09-08T10:27:23;6.72;;;5.20;;
22660;SDS011;11497;52.222;21.246;2023-09-08T10:29:51;7.13;;;4.88;;
22660;SDS011;11497;52.222;21.246;2023-09-08T10:32:19;6.72;;;5.03;;
22660;SDS011;11497;52.222;21.246;2023-09-08T10:34:47;6.03;;;5.32;;
22660;SDS011;11497;52.222;21.246;2023-09-08T10:37:20;7.10;;;4.90;;
22660;SDS011;11497;52.222;21.246;2023-09-08T10:39:47;10.25;;;5.05;;
22660;SDS011;11497;52.222;21.246;2023-09-08T10:44:44;6.80;;;5.13;;
22660;SDS011;11497;52.222;21.246;2023-09-08T10:47:12;7.57;;;5.72;;
22660;SDS011;11497;52.222;21.246;2023-09-08T10:49:40;7.80;;;5.18;;
22660;SDS011;11497;52.222;21.246;2023-09-08T10:52:08;7.85;;;5.68;;
22660;SDS011;11497;52.222;21.246;2023-09-08T10:55:10;8.18;;;5.10;;
22660;SDS011;11497;52.222;21.246;2023-09-08T11:00:03;6.82;;;5.43;;
22660;SDS011;11497;52.222;21.246;2023-09-08T11:02:42;10.13;;;5.53;;
22660;SDS011;11497;52.222;21.246;2023-09-08T11:05:12;10.38;;;5.72;;
22660;SDS011;11497;52.222;21.246;2023-09-08T11:07:43;5.95;;;5.20;;
22660;SDS011;11497;52.222;21.246;2023-09-08T11:10:12;5.78;;;5.10;;
22660;SDS011;11497;52.222;21.246;2023-09-08T11:12:40;7.15;;;5.53;;
22660;SDS011;11497;52.222;21.246;2023-09-08T11:15:08;8.38;;;5.63;;
22660;SDS011;11497;52.222;21.246;2023-09-08T11:17:37;10.32;;;5.70;;
22660;SDS011;11497;52.222;21.246;2023-09-08T11:20:09;14.93;;;6.68;;
22660;SDS011;11497;52.222;21.246;2023-09-08T11:22:39;8.00;;;5.68;;
22660;SDS011;11497;52.222;21.246;2023-09-08T11:25:08;8.35;;;6.32;;
22660;SDS011;11497;52.222;21.246;2023-09-08T11:27:38;7.85;;;6.03;;
22660;SDS011;11497;52.222;21.246;2023-09-08T11:30:07;7.47;;;5.65;;
22660;SDS011;11497;52.222;21.246;2023-09-08T11:32:35;9.70;;;6.65;;
22660;SDS011;11497;52.222;21.246;2023-09-08T11:35:04;11.32;;;6.68;;
22660;SDS011;11497;52.222;21.246;2023-09-08T11:37:35;10.27;;;6.80;;
22660;SDS011;11497;52.222;21.246;2023-09-08T11:40:04;10.68;;;6.97;;
22660;SDS011;11497;52.222;21.246;2023-09-08T11:42:36;12.18;;;7.32;;
22660;SDS011;11497;52.222;21.246;2023-09-08T11:45:07;13.05;;;7.18;;
22660;SDS011;11497;52.222;21.246;2023-09-08T11:47:35;10.68;;;6.65;;
22660;SDS011;11497;52.222;21.246;2023-09-08T11:50:03;10.70;;;7.00;;
22660;SDS011;11497;52.222;21.246;2023-09-08T11:52:32;9.43;;;6.90;;
22660;SDS011;11497;52.222;21.246;2023-09-08T11:54:59;14.27;;;7.80;;
22660;SDS011;11497;52.222;21.246;2023-09-08T12:00:00;13.23;;;7.35;;
22660;SDS011;11497;52.222;21.246;2023-09-08T12:02:35;12.02;;;7.40;;
22660;SDS011;11497;52.222;21.246;2023-09-08T12:05:03;14.55;;;6.95;;
22660;SDS011;11497;52.222;21.246;2023-09-08T12:07:31;12.30;;;7.60;;
22660;SDS011;11497;52.222;21.246;2023-09-08T12:10:03;11.88;;;7.15;;
22660;SDS011;11497;52.222;21.246;2023-09-08T12:12:33;13.52;;;6.60;;
22660;SDS011;11497;52.222;21.246;2023-09-08T12:15:01;8.65;;;7.15;;
22660;SDS011;11497;52.222;21.246;2023-09-08T12:17:29;11.32;;;7.03;;
22660;SDS011;11497;52.222;21.246;2023-09-08T12:19:56;15.73;;;7.60;;
22660;SDS011;11497;52.222;21.246;2023-09-08T12:22:24;10.93;;;7.00;;
22660;SDS011;11497;52.222;21.246;2023-09-08T12:27:23;9.65;;;7.18;;
22660;SDS011;11497;52.222;21.246;2023-09-08T12:29:59;12.38;;;8.57;;
22660;SDS011;11497;52.222;21.246;2023-09-08T12:32:31;14.85;;;7.00;;
22660;SDS011;11497;52.222;21.246;2023-09-08T12:35:00;17.35;;;6.85;;
22660;SDS011;11497;52.222;21.246;2023-09-08T12:37:32;13.45;;;7.10;;
22660;SDS011;11497;52.222;21.246;2023-09-08T12:40:00;8.32;;;7.20;;
22660;SDS011;11497;52.222;21.246;2023-09-08T12:42:28;13.98;;;7.78;;
22660;SDS011;11497;52.222;21.246;2023-09-08T12:44:58;12.57;;;6.65;;
22660;SDS011;11497;52.222;21.246;2023-09-08T12:47:27;10.30;;;6.82;;
22660;SDS011;11497;52.222;21.246;2023-09-08T12:49:54;12.45;;;7.57;;
22660;SDS011;11497;52.222;21.246;2023-09-08T12:52:22;8.68;;;6.55;;
22660;SDS011;11497;52.222;21.246;2023-09-08T12:54:50;14.20;;;7.13;;
22660;SDS011;11497;52.222;21.246;2023-09-08T12:57:18;20.77;;;10.80;;
22660;SDS011;11497;52.222;21.246;2023-09-08T12:59:46;11.10;;;6.68;;
22660;SDS011;11497;52.222;21.246;2023-09-08T13:02:14;10.07;;;7.90;;
22660;SDS011;11497;52.222;21.246;2023-09-08T13:04:42;9.48;;;7.00;;
22660;SDS011;11497;52.222;21.246;2023-09-08T13:07:16;11.60;;;7.65;;
22660;SDS011;11497;52.222;21.246;2023-09-08T13:09:44;16.45;;;8.23;;
22660;SDS011;11497;52.222;21.246;2023-09-08T13:12:12;12.25;;;8.63;;
22660;SDS011;11497;52.222;21.246;2023-09-08T13:14:40;12.10;;;7.82;;
22660;SDS011;11497;52.222;21.246;2023-09-08T13:17:10;11.68;;;7.95;;
22660;SDS011;11497;52.222;21.246;2023-09-08T13:19:38;16.70;;;9.45;;
22660;SDS011;11497;52.222;21.246;2023-09-08T13:22:06;10.95;;;7.28;;
22660;SDS011;11497;52.222;21.246;2023-09-08T13:24:35;10.05;;;6.85;;
22660;SDS011;11497;52.222;21.246;2023-09-08T13:27:03;14.35;;;9.45;;
22660;SDS011;11497;52.222;21.246;2023-09-08T13:29:31;9.50;;;7.38;;
22660;SDS011;11497;52.222;21.246;2023-09-08T13:31:59;15.25;;;7.47;;
22660;SDS011;11497;52.222;21.246;2023-09-08T13:34:26;11.70;;;7.97;;
22660;SDS011;11497;52.222;21.246;2023-09-08T13:36:54;12.35;;;7.13;;
22660;SDS011;11497;52.222;21.246;2023-09-08T13:39:22;14.13;;;7.93;;
22660;SDS011;11497;52.222;21.246;2023-09-08T13:41:51;16.60;;;8.50;;
22660;SDS011;11497;52.222;21.246;2023-09-08T13:44:19;14.13;;;8.18;;
22660;SDS011;11497;52.222;21.246;2023-09-08T13:46:48;15.57;;;8.38;;
22660;SDS011;11497;52.222;21.246;2023-09-08T13:49:16;12.98;;;8.02;;
22660;SDS011;11497;52.222;21.246;2023-09-08T13:51:46;9.48;;;7.88;;
22660;SDS011;11497;52.222;21.246;2023-09-08T13:54:18;12.90;;;8.40;;
22660;SDS011;11497;52.222;21.246;2023-09-08T13:56:56;17.02;;;8.52;;
22660;SDS011;11497;52.222;21.246;2023-09-08T13:59:26;11.48;;;7.90;;
22660;SDS011;11497;52.222;21.246;2023-09-08T14:01:59;12.30;;;8.10;;
22660;SDS011;11497;52.222;21.246;2023-09-08T14:04:50;12.13;;;8.57;;
22660;SDS011;11497;52.222;21.246;2023-09-08T14:07:20;12.65;;;8.48;;
22660;SDS011;11497;52.222;21.246;2023-09-08T14:09:53;10.70;;;8.75;;
22660;SDS011;11497;52.222;21.246;2023-09-08T14:12:36;16.67;;;8.40;;
22660;SDS011;11497;52.222;21.246;2023-09-08T14:15:04;11.55;;;8.88;;
22660;SDS011;11497;52.222;21.246;2023-09-08T14:17:32;12.80;;;8.13;;
22660;SDS011;11497;52.222;21.246;2023-09-08T14:20:00;16.92;;;8.52;;
22660;SDS011;11497;52.222;21.246;2023-09-08T14:22:28;15.77;;;8.77;;
22660;SDS011;11497;52.222;21.246;2023-09-08T14:24:56;12.18;;;7.97;;
22660;SDS011;11497;52.222;21.246;2023-09-08T14:27:23;12.63;;;8.50;;
22660;SDS011;11497;52.222;21.246;2023-09-08T14:29:51;14.30;;;8.07;;
22660;SDS011;11497;52.222;21.246;2023-09-08T14:32:19;17.88;;;8.85;;
22660;SDS011;11497;52.222;21.246;2023-09-08T14:34:48;15.60;;;9.75;;
22660;SDS011;11497;52.222;21.246;2023-09-08T14:37:16;12.43;;;8.48;;
22660;SDS011;11497;52.222;21.246;2023-09-08T14:39:44;11.13;;;8.40;;
22660;SDS011;11497;52.222;21.246;2023-09-08T14:42:13;11.35;;;8.02;;
22660;SDS011;11497;52.222;21.246;2023-09-08T14:44:41;9.90;;;8.27;;
22660;SDS011;11497;52.222;21.246;2023-09-08T14:47:09;12.43;;;9.07;;
22660;SDS011;11497;52.222;21.246;2023-09-08T14:49:37;11.23;;;8.43;;
22660;SDS011;11497;52.222;21.246;2023-09-08T14:52:05;13.65;;;8.32;;